sensor_id;sensor_type;location;lat;lon;timestamp;pressure;altitude;pressure_sealevel;temperature;humidity
29169;BME280;16219;42.864;23.360;2023-04-04T00:00:08;94407.53;;;8.60;100.00
29169;BME280;16219;42.864;23.360;2023-04-04T00:02:35;94406.00;;;8.59;100.00
29169;BME280;16219;42.864;23.360;2023-04-04T00:05:03;94398.78;;;8.56;100.00
29169;BME280;16219;42.864;23.360;2023-04-04T00:07:32;94401.41;;;8.56;100.00
29169;BME280;16219;42.864;23.360;2023-04-04T00:09:59;94412.69;;;8.68;100.00
29169;BME280;16219;42.864;23.360;2023-04-04T00:12:26;94403.38;;;8.71;100.00
29169;BME280;16219;42.864;23.360;2023-04-04T00:14:53;94398.97;;;8.75;100.00
29169;BME280;16219;42.864;23.360;2023-04-04T00:17:20;94401.03;;;8.82;100.00
29169;BME280;16219;42.864;23.360;2023-04-04T00:19:47;94389.22;;;8.75;100.00
29169;BME280;16219;42.864;23.360;2023-04-04T00:22:14;94403.00;;;8.85;100.00
29169;BME280;16219;42.864;23.360;2023-04-04T00:24:43;94398.84;;;8.84;100.00
29169;BME280;16219;42.864;23.360;2023-04-04T00:27:10;94404.19;;;8.87;100.00
29169;BME280;16219;42.864;23.360;2023-04-04T00:29:37;94403.19;;;8.92;100.00
29169;BME280;16219;42.864;23.360;2023-04-04T00:32:05;94403.28;;;8.95;100.00
29169;BME280;16219;42.864;23.360;2023-04-04T00:34:32;94406.78;;;8.99;100.00
29169;BME280;16219;42.864;23.360;2023-04-04T00:37:00;94405.03;;;9.04;100.00
29169;BME280;16219;42.864;23.360;2023-04-04T00:39:27;94400.44;;;9.00;100.00
29169;BME280;16219;42.864;23.360;2023-04-04T00:41:56;94390.75;;;9.05;100.00
29169;BME280;16219;42.864;23.360;2023-04-04T00:44:23;94394.50;;;9.04;100.00
29169;BME280;16219;42.864;23.360;2023-04-04T00:46:50;94394.50;;;9.04;100.00
29169;BME280;16219;42.864;23.360;2023-04-04T00:49:17;94388.59;;;9.07;100.00
29169;BME280;16219;42.864;23.360;2023-04-04T00:51:44;94392.31;;;9.06;100.00
29169;BME280;16219;42.864;23.360;2023-04-04T00:54:11;94382.13;;;9.04;100.00
29169;BME280;16219;42.864;23.360;2023-04-04T00:56:39;94363.94;;;8.99;100.00
29169;BME280;16219;42.864;23.360;2023-04-04T00:59:07;94368.19;;;9.04;100.00
29169;BME280;16219;42.864;23.360;2023-04-04T01:01:35;94360.06;;;9.09;100.00
29169;BME280;16219;42.864;23.360;2023-04-04T01:04:03;94344.63;;;9.07;100.00
29169;BME280;16219;42.864;23.360;2023-04-04T01:06:30;94347.25;;;9.07;100.00
29169;BME280;16219;42.864;23.360;2023-04-04T01:08:57;94344.97;;;9.06;100.00
29169;BME280;16219;42.864;23.360;2023-04-04T01:11:25;94340.38;;;9.02;100.00
29169;BME280;16219;42.864;23.360;2023-04-04T01:13:52;94352.16;;;8.93;100.00
29169;BME280;16219;42.864;23.360;2023-04-04T01:16:22;94362.41;;;8.98;100.00
29169;BME280;16219;42.864;23.360;2023-04-04T01:18:50;94357.84;;;8.83;100.00
29169;BME280;16219;42.864;23.360;2023-04-04T01:21:19;94357.53;;;8.84;100.00
29169;BME280;16219;42.864;23.360;2023-04-04T01:23:55;94358.94;;;8.94;100.00
29169;BME280;16219;42.864;23.360;2023-04-04T01:26:27;94368.03;;;8.96;100.00
29169;BME280;16219;42.864;23.360;2023-04-04T01:28:59;94365.81;;;8.98;100.00
29169;BME280;16219;42.864;23.360;2023-04-04T01:34:19;94369.06;;;9.08;100.00
29169;BME280;16219;42.864;23.360;2023-04-04T01:36:55;94375.91;;;8.96;100.00
29169;BME280;16219;42.864;23.360;2023-04-04T01:39:27;94368.69;;;8.93;100.00
29169;BME280;16219;42.864;23.360;2023-04-04T01:41:59;94368.88;;;9.00;100.00
29169;BME280;16219;42.864;23.360;2023-04-04T01:44:29;94370.84;;;9.04;100.00
29169;BME280;16219;42.864;23.360;2023-04-04T01:46:56;94374.31;;;9.08;100.00
29169;BME280;16219;42.864;23.360;2023-04-04T01:49:23;94382.66;;;9.10;100.00
29169;BME280;16219;42.864;23.360;2023-04-04T01:51:51;94380.16;;;9.01;100.00
29169;BME280;16219;42.864;23.360;2023-04-04T01:54:20;94390.09;;;9.08;100.00
29169;BME280;16219;42.864;23.360;2023-04-04T01:56:47;94386.38;;;9.09;100.00
29169;BME280;16219;42.864;23.360;2023-04-04T01:59:15;94383.81;;;8.96;100.00
29169;BME280;16219;42.864;23.360;2023-04-04T02:01:42;94387.00;;;8.90;100.00
29169;BME280;16219;42.864;23.360;2023-04-04T02:04:09;94372.63;;;8.87;100.00
29169;BME280;16219;42.864;23.360;2023-04-04T02:06:37;94374.41;;;8.83;100.00
29169;BME280;16219;42.864;23.360;2023-04-04T02:09:05;94370.69;;;8.84;100.00
29169;BME280;16219;42.864;23.360;2023-04-04T02:11:32;94339.63;;;8.62;100.00
29169;BME280;16219;42.864;23.360;2023-04-04T02:13:59;94370.88;;;8.91;100.00
29169;BME280;16219;42.864;23.360;2023-04-04T02:16:28;94374.56;;;9.02;100.00
29169;BME280;16219;42.864;23.360;2023-04-04T02:18:55;94373.28;;;8.96;100.00
29169;BME280;16219;42.864;23.360;2023-04-04T02:21:22;94361.09;;;8.92;100.00
29169;BME280;16219;42.864;23.360;2023-04-04T02:23:50;94366.72;;;8.90;100.00
29169;BME280;16219;42.864;23.360;2023-04-04T02:26:17;94373.50;;;8.91;100.00
29169;BME280;16219;42.864;23.360;2023-04-04T02:28:44;94371.72;;;8.95;100.00
29169;BME280;16219;42.864;23.360;2023-04-04T02:31:11;94374.38;;;8.95;100.00
29169;BME280;16219;42.864;23.360;2023-04-04T02:33:40;94353.03;;;8.85;100.00
29169;BME280;16219;42.864;23.360;2023-04-04T02:36:08;94361.03;;;8.88;100.00
29169;BME280;16219;42.864;23.360;2023-04-04T02:38:38;94366.28;;;8.88;100.00
29169;BME280;16219;42.864;23.360;2023-04-04T02:41:06;94364.84;;;8.91;100.00
29169;BME280;16219;42.864;23.360;2023-04-04T02:43:34;94368.88;;;9.00;100.00
29169;BME280;16219;42.864;23.360;2023-04-04T02:46:05;94363.94;;;8.99;100.00
29169;BME280;16219;42.864;23.360;2023-04-04T02:48:32;94369.06;;;9.08;100.00
29169;BME280;16219;42.864;23.360;2023-04-04T02:51:02;94374.56;;;9.02;100.00
29169;BME280;16219;42.864;23.360;2023-04-04T02:53:30;94364.19;;;8.94;100.00
29169;BME280;16219;42.864;23.360;2023-04-04T02:56:04;94373.47;;;9.04;100.00
29169;BME280;16219;42.864;23.360;2023-04-04T02:58:32;94379.59;;;9.08;100.00
29169;BME280;16219;42.864;23.360;2023-04-04T03:00:59;94379.03;;;9.14;100.00
29169;BME280;16219;42.864;23.360;2023-04-04T03:03:31;94376.03;;;9.16;100.00
29169;BME280;16219;42.864;23.360;2023-04-04T03:05:58;94368.06;;;9.12;100.00
29169;BME280;16219;42.864;23.360;2023-04-04T03:08:27;94383.53;;;9.14;100.00
29169;BME280;16219;42.864;23.360;2023-04-04T03:10:57;94374.94;;;9.17;100.00
29169;BME280;16219;42.864;23.360;2023-04-04T03:13:24;94383.94;;;9.16;100.00
29169;BME280;16219;42.864;23.360;2023-04-04T03:15:57;94383.97;;;9.04;100.00
29169;BME280;16219;42.864;23.360;2023-04-04T03:18:26;94385.19;;;9.06;100.00
29169;BME280;16219;42.864;23.360;2023-04-04T03:20:53;94371.97;;;8.90;100.00
29169;BME280;16219;42.864;23.360;2023-04-04T03:23:20;94383.13;;;8.99;100.00
29169;BME280;16219;42.864;23.360;2023-04-04T03:25:48;94388.06;;;9.01;100.00
29169;BME280;16219;42.864;23.360;2023-04-04T03:28:15;94380.25;;;9.05;100.00
29169;BME280;16219;42.864;23.360;2023-04-04T03:30:43;94378.09;;;8.94;100.00
29169;BME280;16219;42.864;23.360;2023-04-04T03:33:10;94387.72;;;9.02;100.00
29169;BME280;16219;42.864;23.360;2023-04-04T03:35:38;94368.03;;;8.96;100.00
29169;BME280;16219;42.864;23.360;2023-04-04T03:38:05;94368.78;;;8.97;100.00
29169;BME280;16219;42.864;23.360;2023-04-04T03:40:32;94382.22;;;9.08;100.00
29169;BME280;16219;42.864;23.360;2023-04-04T03:43:05;94381.56;;;9.11;100.00
29169;BME280;16219;42.864;23.360;2023-04-04T03:45:32;94382.03;;;9.00;100.00
29169;BME280;16219;42.864;23.360;2023-04-04T03:48:00;94373.22;;;9.09;100.00
29169;BME280;16219;42.864;23.360;2023-04-04T03:50:29;94376.94;;;9.08;100.00
29169;BME280;16219;42.864;23.360;2023-04-04T03:52:57;94381.09;;;9.09;100.00
29169;BME280;16219;42.864;23.360;2023-04-04T03:55:24;94383.53;;;9.14;100.00
29169;BME280;16219;42.864;23.360;2023-04-04T03:57:57;94375.94;;;9.12;100.00
29169;BME280;16219;42.864;23.360;2023-04-04T04:00:26;94373.41;;;9.16;100.00
29169;BME280;16219;42.864;23.360;2023-04-04T04:02:53;94376.53;;;9.06;100.00
29169;BME280;16219;42.864;23.360;2023-04-04T04:05:20;94369.97;;;8.99;100.00
29169;BME280;16219;42.864;23.360;2023-04-04T04:07:47;94368.88;;;9.00;100.00
29169;BME280;16219;42.864;23.360;2023-04-04T04:10:14;94383.47;;;8.98;100.00
29169;BME280;16219;42.864;23.360;2023-04-04T04:12:41;94377.44;;;8.97;100.00
29169;BME280;16219;42.864;23.360;2023-04-04T04:15:09;94373.75;;;8.86;100.00
29169;BME280;16219;42.864;23.360;2023-04-04T04:17:40;94373.84;;;8.90;100.00
29169;BME280;16219;42.864;23.360;2023-04-04T04:20:08;94368.59;;;8.90;100.00
29169;BME280;16219;42.864;23.360;2023-04-04T04:22:44;94351.41;;;8.80;100.00
29169;BME280;16219;42.864;23.360;2023-04-04T04:25:12;94372.50;;;8.96;100.00
29169;BME280;16219;42.864;23.360;2023-04-04T04:27:43;94367.78;;;9.01;100.00
29169;BME280;16219;42.864;23.360;2023-04-04T04:30:11;94355.84;;;8.92;100.00
29169;BME280;16219;42.864;23.360;2023-04-04T04:32:44;94369.72;;;9.05;100.00
29169;BME280;16219;42.864;23.360;2023-04-04T04:35:12;94371.03;;;9.11;100.00
29169;BME280;16219;42.864;23.360;2023-04-04T04:37:40;94367.97;;;9.09;100.00
29169;BME280;16219;42.864;23.360;2023-04-04T04:40:08;94374.78;;;9.10;100.00
29169;BME280;16219;42.864;23.360;2023-04-04T04:42:43;94384.38;;;9.18;100.00
29169;BME280;16219;42.864;23.360;2023-04-04T04:45:13;94387.94;;;9.10;100.00
29169;BME280;16219;42.864;23.360;2023-04-04T04:47:45;94391.22;;;9.07;100.00
29169;BME280;16219;42.864;23.360;2023-04-04T04:50:15;94396.22;;;9.12;100.00
29169;BME280;16219;42.864;23.360;2023-04-04T04:52:46;94403.13;;;9.16;100.00
29169;BME280;16219;42.864;23.360;2023-04-04T04:55:15;94393.19;;;9.10;100.00
29169;BME280;16219;42.864;23.360;2023-04-04T04:57:48;94415.28;;;9.21;100.00
29169;BME280;16219;42.864;23.360;2023-04-04T05:00:22;94420.75;;;9.28;100.00
29169;BME280;16219;42.864;23.360;2023-04-04T05:02:53;94421.84;;;9.27;100.00
29169;BME280;16219;42.864;23.360;2023-04-04T05:05:28;94422.09;;;9.22;100.00
29169;BME280;16219;42.864;23.360;2023-04-04T05:08:02;94416.00;;;9.06;100.00
29169;BME280;16219;42.864;23.360;2023-04-04T05:10:30;94421.00;;;9.11;100.00
29169;BME280;16219;42.864;23.360;2023-04-04T05:12:58;94424.16;;;9.16;100.00
29169;BME280;16219;42.864;23.360;2023-04-04T05:15:30;94425.78;;;9.21;100.00
29169;BME280;16219;42.864;23.360;2023-04-04T05:17:58;94421.22;;;9.18;100.00
29169;BME280;16219;42.864;23.360;2023-04-04T05:20:26;94424.94;;;9.17;100.00
29169;BME280;16219;42.864;23.360;2023-04-04T05:22:54;94427.78;;;9.24;100.00
29169;BME280;16219;42.864;23.360;2023-04-04T05:25:30;94429.75;;;9.27;100.00
29169;BME280;16219;42.864;23.360;2023-04-04T05:27:57;94441.78;;;9.28;100.00
29169;BME280;16219;42.864;23.360;2023-04-04T05:30:24;94435.75;;;9.27;100.00
29169;BME280;16219;42.864;23.360;2023-04-04T05:33:06;94442.41;;;9.37;100.00
29169;BME280;16219;42.864;23.360;2023-04-04T05:35:36;94433.22;;;9.31;100.00
29169;BME280;16219;42.864;23.360;2023-04-04T05:38:03;94439.56;;;9.30;100.00
29169;BME280;16219;42.864;23.360;2023-04-04T05:40:32;94442.84;;;9.39;100.00
29169;BME280;16219;42.864;23.360;2023-04-04T05:43:07;94447.44;;;9.42;100.00
29169;BME280;16219;42.864;23.360;2023-04-04T05:45:45;94443.28;;;9.41;100.00
29169;BME280;16219;42.864;23.360;2023-04-04T05:48:14;94455.13;;;9.47;100.00
29169;BME280;16219;42.864;23.360;2023-04-04T05:50:48;94452.78;;;9.46;100.00
29169;BME280;16219;42.864;23.360;2023-04-04T05:53:17;94455.44;;;9.46;100.00
29169;BME280;16219;42.864;23.360;2023-04-04T05:55:50;94446.56;;;9.38;100.00
29169;BME280;16219;42.864;23.360;2023-04-04T05:58:18;94453.25;;;9.48;100.00
29169;BME280;16219;42.864;23.360;2023-04-04T06:00:53;94454.75;;;9.49;100.00
29169;BME280;16219;42.864;23.360;2023-04-04T06:03:21;94462.88;;;9.56;100.00
29169;BME280;16219;42.864;23.360;2023-04-04T06:05:52;94462.56;;;9.45;100.00
29169;BME280;16219;42.864;23.360;2023-04-04T06:08:20;94460.16;;;9.40;100.00
29169;BME280;16219;42.864;23.360;2023-04-04T06:10:47;94455.38;;;9.30;100.00
29169;BME280;16219;42.864;23.360;2023-04-04T06:13:14;94470.50;;;9.33;100.00
29169;BME280;16219;42.864;23.360;2023-04-04T06:15:48;94470.00;;;9.15;100.00
29169;BME280;16219;42.864;23.360;2023-04-04T06:18:18;94470.38;;;9.01;100.00
29169;BME280;16219;42.864;23.360;2023-04-04T06:20:47;94469.94;;;8.87;100.00
29169;BME280;16219;42.864;23.360;2023-04-04T06:23:15;94471.50;;;8.76;100.00
29169;BME280;16219;42.864;23.360;2023-04-04T06:25:46;94474.66;;;8.69;100.00
29169;BME280;16219;42.864;23.360;2023-04-04T06:28:14;94474.66;;;8.45;100.00
29169;BME280;16219;42.864;23.360;2023-04-04T06:30:45;94480.88;;;8.28;100.00
29169;BME280;16219;42.864;23.360;2023-04-04T06:33:16;94480.31;;;8.10;100.00
29169;BME280;16219;42.864;23.360;2023-04-04T06:35:47;94482.63;;;8.12;100.00
29169;BME280;16219;42.864;23.360;2023-04-04T06:38:16;94482.16;;;8.10;100.00
29169;BME280;16219;42.864;23.360;2023-04-04T06:40:43;94482.19;;;7.76;100.00
29169;BME280;16219;42.864;23.360;2023-04-04T06:43:10;94481.19;;;7.69;100.00
29169;BME280;16219;42.864;23.360;2023-04-04T06:45:41;94494.00;;;7.70;100.00
29169;BME280;16219;42.864;23.360;2023-04-04T06:48:08;94500.16;;;7.54;100.00
29169;BME280;16219;42.864;23.360;2023-04-04T06:50:36;94508.03;;;7.54;100.00
29169;BME280;16219;42.864;23.360;2023-04-04T06:53:08;94516.88;;;7.49;100.00
29169;BME280;16219;42.864;23.360;2023-04-04T06:55:35;94515.66;;;7.46;100.00
29169;BME280;16219;42.864;23.360;2023-04-04T06:58:02;94515.84;;;7.41;100.00
29169;BME280;16219;42.864;23.360;2023-04-04T07:00:29;94503.75;;;7.28;100.00
29169;BME280;16219;42.864;23.360;2023-04-04T07:02:56;94533.31;;;7.37;100.00
29169;BME280;16219;42.864;23.360;2023-04-04T07:05:25;94531.53;;;7.29;100.00
29169;BME280;16219;42.864;23.360;2023-04-04T07:07:52;94548.09;;;7.42;100.00
29169;BME280;16219;42.864;23.360;2023-04-04T07:10:22;94543.81;;;7.37;100.00
29169;BME280;16219;42.864;23.360;2023-04-04T07:12:49;94552.63;;;7.33;100.00
29169;BME280;16219;42.864;23.360;2023-04-04T07:15:16;94562.28;;;7.20;100.00
29169;BME280;16219;42.864;23.360;2023-04-04T07:17:43;94573.59;;;7.12;100.00
29169;BME280;16219;42.864;23.360;2023-04-04T07:20:11;94558.88;;;6.98;100.00
29169;BME280;16219;42.864;23.360;2023-04-04T07:22:38;94581.09;;;6.92;100.00
29169;BME280;16219;42.864;23.360;2023-04-04T07:25:07;94578.03;;;6.90;100.00
29169;BME280;16219;42.864;23.360;2023-04-04T07:27:35;94584.81;;;6.91;100.00
29169;BME280;16219;42.864;23.360;2023-04-04T07:30:03;94584.13;;;7.03;100.00
29169;BME280;16219;42.864;23.360;2023-04-04T07:32:30;94597.63;;;6.93;100.00
29169;BME280;16219;42.864;23.360;2023-04-04T07:34:57;94601.28;;;6.92;100.00
29169;BME280;16219;42.864;23.360;2023-04-04T07:37:24;94589.31;;;6.82;100.00
29169;BME280;16219;42.864;23.360;2023-04-04T07:39:52;94598.69;;;6.92;100.00
29169;BME280;16219;42.864;23.360;2023-04-04T07:42:19;94595.28;;;6.91;100.00
29169;BME280;16219;42.864;23.360;2023-04-04T07:44:50;94603.50;;;6.81;100.00
29169;BME280;16219;42.864;23.360;2023-04-04T07:47:17;94602.81;;;7.01;100.00
29169;BME280;16219;42.864;23.360;2023-04-04T07:49:45;94576.63;;;6.93;100.00
29169;BME280;16219;42.864;23.360;2023-04-04T07:52:12;94618.03;;;7.08;100.00
29169;BME280;16219;42.864;23.360;2023-04-04T07:54:39;94626.28;;;6.98;100.00
29169;BME280;16219;42.864;23.360;2023-04-04T07:57:06;94623.84;;;6.93;100.00
29169;BME280;16219;42.864;23.360;2023-04-04T07:59:34;94639.41;;;6.89;100.00
29169;BME280;16219;42.864;23.360;2023-04-04T08:02:02;94637.88;;;6.88;100.00
29169;BME280;16219;42.864;23.360;2023-04-04T08:04:29;94637.22;;;6.91;100.00
29169;BME280;16219;42.864;23.360;2023-04-04T08:06:56;94643.69;;;7.03;100.00
29169;BME280;16219;42.864;23.360;2023-04-04T08:09:23;94638.44;;;7.03;100.00
29169;BME280;16219;42.864;23.360;2023-04-04T08:11:52;94643.53;;;6.99;100.00
29169;BME280;16219;42.864;23.360;2023-04-04T08:14:19;94649.09;;;6.97;100.00
29169;BME280;16219;42.864;23.360;2023-04-04T08:16:46;94647.66;;;7.09;100.00
29169;BME280;16219;42.864;23.360;2023-04-04T08:19:15;94652.63;;;7.01;100.00
29169;BME280;16219;42.864;23.360;2023-04-04T08:21:42;94653.41;;;7.02;100.00
29169;BME280;16219;42.864;23.360;2023-04-04T08:24:10;94654.16;;;7.03;100.00
29169;BME280;16219;42.864;23.360;2023-04-04T08:26:37;94655.56;;;7.00;100.00
29169;BME280;16219;42.864;23.360;2023-04-04T08:29:04;94661.22;;;7.11;100.00
29169;BME280;16219;42.864;23.360;2023-04-04T08:31:32;94658.44;;;7.16;100.00
29169;BME280;16219;42.864;23.360;2023-04-04T08:33:59;94659.25;;;7.37;100.00
29169;BME280;16219;42.864;23.360;2023-04-04T08:36:28;94667.88;;;7.67;100.00
29169;BME280;16219;42.864;23.360;2023-04-04T08:38:55;94667.69;;;7.93;100.00
29169;BME280;16219;42.864;23.360;2023-04-04T08:41:22;94665.44;;;8.25;100.00
29169;BME280;16219;42.864;23.360;2023-04-04T08:43:51;94663.66;;;8.38;100.00
29169;BME280;16219;42.864;23.360;2023-04-04T08:46:20;94675.28;;;8.49;100.00
29169;BME280;16219;42.864;23.360;2023-04-04T08:48:49;94670.38;;;8.26;100.00
29169;BME280;16219;42.864;23.360;2023-04-04T08:51:18;94683.97;;;8.29;100.00
29169;BME280;16219;42.864;23.360;2023-04-04T08:53:47;94682.66;;;8.35;100.00
29169;BME280;16219;42.864;23.360;2023-04-04T08:56:14;94677.88;;;8.37;100.00
29169;BME280;16219;42.864;23.360;2023-04-04T08:58:41;94695.13;;;8.25;100.00
29169;BME280;16219;42.864;23.360;2023-04-04T09:01:09;94691.72;;;8.25;100.00
29169;BME280;16219;42.864;23.360;2023-04-04T09:03:36;94698.25;;;8.19;100.00
29169;BME280;16219;42.864;23.360;2023-04-04T09:06:04;94696.72;;;8.18;100.00
29169;BME280;16219;42.864;23.360;2023-04-04T09:08:31;94706.72;;;8.24;100.00
29169;BME280;16219;42.864;23.360;2023-04-04T09:11:01;94712.09;;;8.28;100.00
29169;BME280;16219;42.864;23.360;2023-04-04T09:13:28;94713.44;;;8.34;100.00
29169;BME280;16219;42.864;23.360;2023-04-04T09:15:56;94716.59;;;8.48;100.00
29169;BME280;16219;42.864;23.360;2023-04-04T09:18:24;94717.72;;;8.60;100.00
29169;BME280;16219;42.864;23.360;2023-04-04T09:20:51;94721.31;;;8.76;100.00
29169;BME280;16219;42.864;23.360;2023-04-04T09:23:19;94710.78;;;8.76;100.00
29169;BME280;16219;42.864;23.360;2023-04-04T09:25:49;94722.50;;;8.79;100.00
29169;BME280;16219;42.864;23.360;2023-04-04T09:28:19;94717.41;;;8.94;100.00
29169;BME280;16219;42.864;23.360;2023-04-04T09:30:47;94718.75;;;9.13;100.00
29169;BME280;16219;42.864;23.360;2023-04-04T09:33:15;94723.13;;;9.09;100.00
29169;BME280;16219;42.864;23.360;2023-04-04T09:35:44;94727.06;;;9.02;100.00
29169;BME280;16219;42.864;23.360;2023-04-04T09:38:13;94715.50;;;8.83;100.00
29169;BME280;16219;42.864;23.360;2023-04-04T09:40:41;94729.44;;;8.95;100.00
29169;BME280;16219;42.864;23.360;2023-04-04T09:43:11;94729.19;;;9.09;100.00
29169;BME280;16219;42.864;23.360;2023-04-04T09:45:43;94710.13;;;8.79;100.00
29169;BME280;16219;42.864;23.360;2023-04-04T09:48:10;94710.28;;;8.62;100.00
29169;BME280;16219;42.864;23.360;2023-04-04T09:50:44;94727.69;;;8.54;100.00
29169;BME280;16219;42.864;23.360;2023-04-04T09:53:15;94730.03;;;8.26;100.00
29169;BME280;16219;42.864;23.360;2023-04-04T09:55:48;94733.00;;;8.24;100.00
29169;BME280;16219;42.864;23.360;2023-04-04T09:58:17;94730.03;;;8.26;100.00
29169;BME280;16219;42.864;23.360;2023-04-04T10:00:46;94737.47;;;8.24;100.00
29169;BME280;16219;42.864;23.360;2023-04-04T10:03:14;94735.16;;;8.01;100.00
29169;BME280;16219;42.864;23.360;2023-04-04T10:05:44;94732.28;;;7.94;100.00
29169;BME280;16219;42.864;23.360;2023-04-04T10:08:16;94742.69;;;7.82;100.00
29169;BME280;16219;42.864;23.360;2023-04-04T10:10:47;94739.41;;;7.85;100.00
29169;BME280;16219;42.864;23.360;2023-04-04T10:13:21;94724.66;;;7.72;100.00
29169;BME280;16219;42.864;23.360;2023-04-04T10:15:51;94747.63;;;7.84;100.00
29169;BME280;16219;42.864;23.360;2023-04-04T10:18:20;94750.34;;;7.66;100.00
29169;BME280;16219;42.864;23.360;2023-04-04T10:20:48;94759.34;;;7.57;100.00
29169;BME280;16219;42.864;23.360;2023-04-04T10:23:15;94763.66;;;7.61;100.00
29169;BME280;16219;42.864;23.360;2023-04-04T10:25:43;94766.22;;;7.70;100.00
29169;BME280;16219;42.864;23.360;2023-04-04T10:28:10;94779.16;;;7.75;100.00
29169;BME280;16219;42.864;23.360;2023-04-04T10:30:41;94769.94;;;7.69;100.00
29169;BME280;16219;42.864;23.360;2023-04-04T10:33:17;94774.63;;;7.55;100.00
29169;BME280;16219;42.864;23.360;2023-04-04T10:35:49;94770.63;;;7.57;100.00
29169;BME280;16219;42.864;23.360;2023-04-04T10:38:20;94778.69;;;7.73;100.00
29169;BME280;16219;42.864;23.360;2023-04-04T10:40:52;94782.25;;;7.77;100.00
29169;BME280;16219;42.864;23.360;2023-04-04T10:43:24;94787.16;;;7.87;100.00
29169;BME280;16219;42.864;23.360;2023-04-04T10:45:54;94794.44;;;7.82;100.00
29169;BME280;16219;42.864;23.360;2023-04-04T10:48:24;94797.28;;;7.97;100.00
29169;BME280;16219;42.864;23.360;2023-04-04T10:50:53;94781.28;;;7.90;100.00
29169;BME280;16219;42.864;23.360;2023-04-04T10:53:22;94798.56;;;7.91;100.00
29169;BME280;16219;42.864;23.360;2023-04-04T10:55:49;94796.88;;;7.87;100.00
29169;BME280;16219;42.864;23.360;2023-04-04T10:58:17;94804.34;;;7.76;100.00
29169;BME280;16219;42.864;23.360;2023-04-04T11:00:51;94805.97;;;7.89;100.00
29169;BME280;16219;42.864;23.360;2023-04-04T11:03:20;94803.53;;;7.84;100.00
29169;BME280;16219;42.864;23.360;2023-04-04T11:05:48;94806.97;;;7.76;100.00
29169;BME280;16219;42.864;23.360;2023-04-04T11:08:22;94797.50;;;7.45;100.00
29169;BME280;16219;42.864;23.360;2023-04-04T11:10:51;94804.94;;;7.43;100.00
29169;BME280;16219;42.864;23.360;2023-04-04T11:13:23;94800.38;;;7.23;100.00
29169;BME280;16219;42.864;23.360;2023-04-04T11:15:53;94808.22;;;7.32;100.00
29169;BME280;16219;42.864;23.360;2023-04-04T11:18:45;94813.13;;;7.33;100.00
29169;BME280;16219;42.864;23.360;2023-04-04T11:21:15;94807.75;;;7.21;100.00
29169;BME280;16219;42.864;23.360;2023-04-04T11:24:13;94821.94;;;7.29;100.00
29169;BME280;16219;42.864;23.360;2023-04-04T11:26:41;94823.75;;;7.45;100.00
29169;BME280;16219;42.864;23.360;2023-04-04T11:29:19;94824.31;;;7.60;100.00
29169;BME280;16219;42.864;23.360;2023-04-04T11:31:47;94828.69;;;7.47;100.00
29169;BME280;16219;42.864;23.360;2023-04-04T11:34:30;94822.84;;;7.41;100.00
29169;BME280;16219;42.864;23.360;2023-04-04T11:37:14;94828.09;;;7.33;100.00
29169;BME280;16219;42.864;23.360;2023-04-04T11:39:47;94828.13;;;7.24;100.00
29169;BME280;16219;42.864;23.360;2023-04-04T11:42:22;94830.41;;;7.34;100.00
29169;BME280;16219;42.864;23.360;2023-04-04T11:45:01;94821.91;;;7.37;100.00
29169;BME280;16219;42.864;23.360;2023-04-04T11:47:29;94831.22;;;7.17;100.00
29169;BME280;16219;42.864;23.360;2023-04-04T11:49:59;94828.75;;;7.21;100.00
29169;BME280;16219;42.864;23.360;2023-04-04T11:52:33;94835.81;;;7.29;100.00
29169;BME280;16219;42.864;23.360;2023-04-04T11:55:01;94835.03;;;7.37;100.00
29169;BME280;16219;42.864;23.360;2023-04-04T11:57:28;94836.44;;;7.26;100.00
29169;BME280;16219;42.864;23.360;2023-04-04T11:59:56;94834.41;;;7.40;100.00
29169;BME280;16219;42.864;23.360;2023-04-04T12:02:25;94836.28;;;7.40;100.00
29169;BME280;16219;42.864;23.360;2023-04-04T12:04:56;94826.72;;;7.35;100.00
29169;BME280;16219;42.864;23.360;2023-04-04T12:07:24;94825.19;;;7.17;100.00
29169;BME280;16219;42.864;23.360;2023-04-04T12:09:53;94831.53;;;7.16;100.00
29169;BME280;16219;42.864;23.360;2023-04-04T12:12:21;94826.47;;;7.11;100.00
29169;BME280;16219;42.864;23.360;2023-04-04T12:14:48;94829.53;;;7.13;100.00
29169;BME280;16219;42.864;23.360;2023-04-04T12:17:15;94827.53;;;7.10;100.00
29169;BME280;16219;42.864;23.360;2023-04-04T12:19:43;94848.22;;;7.11;100.00
29169;BME280;16219;42.864;23.360;2023-04-04T12:22:11;94843.28;;;7.01;100.00
29169;BME280;16219;42.864;23.360;2023-04-04T12:24:38;94843.75;;;6.86;100.00
29169;BME280;16219;42.864;23.360;2023-04-04T12:27:07;94841.91;;;6.86;100.00
29169;BME280;16219;42.864;23.360;2023-04-04T12:29:35;94835.88;;;6.51;100.00
29169;BME280;16219;42.864;23.360;2023-04-04T12:32:03;94840.81;;;6.53;100.00
29169;BME280;16219;42.864;23.360;2023-04-04T12:34:32;94840.34;;;6.42;100.00
29169;BME280;16219;42.864;23.360;2023-04-04T12:37:01;94845.88;;;6.49;100.00
29169;BME280;16219;42.864;23.360;2023-04-04T12:39:28;94845.59;;;6.59;100.00
29169;BME280;16219;42.864;23.360;2023-04-04T12:41:57;94851.13;;;6.58;100.00
29169;BME280;16219;42.864;23.360;2023-04-04T12:44:28;94854.84;;;6.65;100.00
29169;BME280;16219;42.864;23.360;2023-04-04T12:46:56;94844.97;;;6.62;100.00
29169;BME280;16219;42.864;23.360;2023-04-04T12:49:27;94838.50;;;6.60;100.00
29169;BME280;16219;42.864;23.360;2023-04-04T12:51:54;94856.25;;;6.71;100.00
29169;BME280;16219;42.864;23.360;2023-04-04T12:54:26;94861.19;;;6.73;100.00
29169;BME280;16219;42.864;23.360;2023-04-04T12:56:55;94860.56;;;6.76;100.00
29169;BME280;16219;42.864;23.360;2023-04-04T12:59:23;94828.94;;;6.38;100.00
29169;BME280;16219;42.864;23.360;2023-04-04T13:01:54;94864.84;;;6.46;100.00